Time;durP1;ratioP1;P1;durP2;ratioP2;P2;SDS_P1;SDS_P2;PMS_P1;PMS_P2;Temp;Humidity;BMP_temperature;BMP_pressure;BME280_temperature;BME280_humidity;BME280_pressure;Samples;Min_cycle;Max_cycle;Signal;HPM_P1;HPM_P2
2023/07/23 00:00:17;;;;;;;12.15;8.63;;;14.70;99.90;;;;;;4914764;29;20048;-32
2023/07/23 00:02:43;;;;;;;11.50;8.02;;;14.70;99.90;;;;;;4915354;29;20047;-31
2023/07/23 00:05:09;;;;;;;10.30;8.25;;;14.70;99.90;;;;;;4916171;29;20085;-31
2023/07/23 00:07:35;;;;;;;11.55;8.40;;;14.70;99.90;;;;;;4915954;29;20048;-31
2023/07/23 00:10:01;;;;;;;11.35;8.60;;;14.70;99.90;;;;;;4915909;29;20051;-31
2023/07/23 00:12:27;;;;;;;9.70;8.20;;;14.70;99.90;;;;;;4916041;29;20128;-31
2023/07/23 00:14:52;;;;;;;11.02;8.32;;;14.70;99.90;;;;;;4914843;29;20069;-31
2023/07/23 00:17:18;;;;;;;10.30;8.27;;;14.70;99.90;;;;;;4915864;29;20047;-32
2023/07/23 00:19:44;;;;;;;12.10;8.57;;;14.70;99.90;;;;;;4915695;29;20044;-31
2023/07/23 00:22:09;;;;;;;11.38;8.05;;;14.70;99.90;;;;;;4916080;29;20402;-31
2023/07/23 00:24:35;;;;;;;10.82;8.43;;;14.70;99.90;;;;;;4899178;29;20521;-30
2023/07/23 00:27:00;;;;;;;8.68;7.00;;;14.70;99.90;;;;;;4915875;29;20047;-31
2023/07/23 00:29:26;;;;;;;10.90;7.32;;;14.80;99.90;;;;;;4914671;29;20059;-31
2023/07/23 00:31:52;;;;;;;12.00;8.13;;;14.80;99.90;;;;;;4915873;29;20040;-31
2023/07/23 00:34:17;;;;;;;10.90;7.38;;;14.80;99.90;;;;;;4916008;29;20050;-31
2023/07/23 00:36:43;;;;;;;9.98;7.55;;;14.80;99.90;;;;;;4915381;29;20398;-31
2023/07/23 00:39:09;;;;;;;12.98;8.02;;;14.80;99.90;;;;;;4915831;29;20173;-31
2023/07/23 00:41:34;;;;;;;10.85;7.93;;;14.80;99.90;;;;;;4915524;29;20380;-31
2023/07/23 00:44:01;;;;;;;9.15;7.07;;;14.80;99.90;;;;;;4915788;29;20040;-31
2023/07/23 00:46:27;;;;;;;10.73;7.30;;;14.80;99.90;;;;;;4915516;29;20450;-31
2023/07/23 00:48:53;;;;;;;8.57;7.00;;;14.80;99.90;;;;;;4898269;29;20119;-31
2023/07/23 00:51:20;;;;;;;10.98;7.82;;;14.80;99.90;;;;;;4915614;29;20041;-32
2023/07/23 00:53:46;;;;;;;10.70;7.40;;;14.80;99.90;;;;;;4898139;29;20040;-30
2023/07/23 00:56:12;;;;;;;8.25;7.35;;;14.80;99.90;;;;;;4915594;29;20047;-33
2023/07/23 00:58:37;;;;;;;8.52;7.22;;;14.80;99.90;;;;;;4915370;29;20069;-31
2023/07/23 01:01:03;;;;;;;10.85;7.65;;;14.80;99.90;;;;;;4913975;29;20051;-31
2023/07/23 01:03:29;;;;;;;13.15;8.00;;;14.80;99.90;;;;;;4915436;29;20494;-31
2023/07/23 01:06:01;;;;;;;9.38;7.90;;;14.80;99.90;;;;;;4914244;29;20056;-31
2023/07/23 01:08:27;;;;;;;10.50;8.20;;;14.80;99.90;;;;;;4915268;29;20095;-31
2023/07/23 01:10:53;;;;;;;12.23;8.13;;;14.80;99.90;;;;;;4897724;29;20135;-34
2023/07/23 01:13:20;;;;;;;12.32;8.98;;;14.80;99.90;;;;;;4914933;29;20059;-33
2023/07/23 01:15:46;;;;;;;11.95;8.25;;;14.70;99.90;;;;;;4894276;29;20037;-33
2023/07/23 01:18:12;;;;;;;13.93;8.55;;;14.70;99.90;;;;;;4892209;29;20048;-33
2023/07/23 01:20:38;;;;;;;11.15;8.90;;;14.70;99.90;;;;;;4879738;29;20423;-34
2023/07/23 01:23:04;;;;;;;10.80;9.18;;;14.70;99.90;;;;;;4885065;29;20192;-32
2023/07/23 01:25:29;;;;;;;11.48;8.38;;;14.70;99.90;;;;;;4889200;29;20049;-34
2023/07/23 01:27:55;;;;;;;10.75;8.07;;;14.70;99.90;;;;;;4895338;29;20383;-33
2023/07/23 01:30:21;;;;;;;12.98;8.38;;;14.60;99.90;;;;;;4889942;29;20455;-34
2023/07/23 01:32:47;;;;;;;11.55;8.50;;;14.60;99.90;;;;;;4894258;29;20055;-34
2023/07/23 01:35:15;;;;;;;10.48;8.60;;;14.60;99.90;;;;;;4898806;29;20028;-33
2023/07/23 01:37:43;;;;;;;12.27;8.75;;;14.60;99.90;;;;;;4893872;29;20487;-34
2023/07/23 01:40:09;;;;;;;12.65;8.60;;;14.60;99.90;;;;;;4894616;29;20124;-32
2023/07/23 01:42:35;;;;;;;10.73;8.20;;;14.60;99.90;;;;;;4876931;29;20084;-32
2023/07/23 01:45:04;;;;;;;12.18;8.88;;;14.60;99.90;;;;;;4899378;29;20036;-33
2023/07/23 01:47:30;;;;;;;13.82;9.15;;;14.60;99.90;;;;;;4899103;29;20032;-33
2023/07/23 01:49:56;;;;;;;13.05;9.55;;;14.60;99.90;;;;;;4896230;29;20417;-34
2023/07/23 01:52:25;;;;;;;12.48;8.75;;;14.60;99.90;;;;;;4897161;29;20040;-35
2023/07/23 01:54:50;;;;;;;10.93;8.90;;;14.60;99.90;;;;;;4893329;29;20380;-34
2023/07/23 01:57:16;;;;;;;11.10;8.48;;;14.50;99.90;;;;;;4893984;29;20088;-34
2023/07/23 01:59:42;;;;;;;11.93;8.52;;;14.50;99.90;;;;;;4892988;29;20075;-34
2023/07/23 02:02:09;;;;;;;11.43;8.63;;;14.50;99.90;;;;;;4881062;29;20047;-37
2023/07/23 02:04:35;;;;;;;11.30;8.13;;;14.50;99.90;;;;;;4895972;29;20426;-35
2023/07/23 02:07:02;;;;;;;13.10;9.10;;;14.50;99.90;;;;;;4896487;29;20036;-34
2023/07/23 02:09:27;;;;;;;11.35;9.35;;;14.50;99.90;;;;;;4880721;29;20056;-37
2023/07/23 02:11:54;;;;;;;13.75;9.10;;;14.50;99.90;;;;;;4892746;29;20055;-35
2023/07/23 02:14:20;;;;;;;12.25;9.38;;;14.50;99.90;;;;;;4893550;29;20036;-34
2023/07/23 02:16:45;;;;;;;11.70;9.07;;;14.50;99.90;;;;;;4892536;29;20032;-35
2023/07/23 02:19:13;;;;;;;14.38;10.38;;;14.50;99.90;;;;;;4898523;29;20148;-34
2023/07/23 02:21:38;;;;;;;13.63;10.73;;;14.50;99.90;;;;;;4892352;29;20044;-34
2023/07/23 02:24:05;;;;;;;13.88;10.57;;;14.50;99.90;;;;;;4892480;29;20052;-35
2023/07/23 02:26:31;;;;;;;11.40;9.88;;;14.50;99.90;;;;;;4892833;29;20091;-35
2023/07/23 02:28:57;;;;;;;13.55;9.88;;;14.50;99.90;;;;;;4893107;29;20037;-35
2023/07/23 02:31:22;;;;;;;13.00;9.30;;;14.50;99.90;;;;;;4893932;29;20071;-35
2023/07/23 02:33:48;;;;;;;13.63;9.65;;;14.50;99.90;;;;;;4898259;29;20044;-37
2023/07/23 02:36:14;;;;;;;15.40;10.43;;;14.50;99.90;;;;;;4896544;29;20051;-35
2023/07/23 02:38:39;;;;;;;13.95;9.93;;;14.50;99.90;;;;;;4892373;29;20067;-34
2023/07/23 02:41:07;;;;;;;14.77;9.70;;;14.50;99.90;;;;;;4892456;29;20044;-34
2023/07/23 02:43:33;;;;;;;17.77;10.35;;;14.60;99.90;;;;;;4886704;29;20041;-35
2023/07/23 02:45:58;;;;;;;14.00;9.43;;;14.60;99.90;;;;;;4892061;29;20043;-37
2023/07/23 02:48:24;;;;;;;14.18;10.90;;;14.60;99.90;;;;;;4892451;29;20120;-34
2023/07/23 02:50:52;;;;;;;14.20;10.23;;;14.60;99.90;;;;;;4893460;29;20459;-33
2023/07/23 02:53:18;;;;;;;12.68;10.15;;;14.60;99.90;;;;;;4896375;29;20128;-33
2023/07/23 02:55:44;;;;;;;13.50;10.32;;;14.60;99.90;;;;;;4894666;29;20119;-33
2023/07/23 02:58:10;;;;;;;13.73;10.48;;;14.60;99.90;;;;;;4892114;29;20063;-33
2023/07/23 03:00:40;;;;;;;13.77;9.90;;;14.60;99.90;;;;;;4894384;29;20052;-33
2023/07/23 03:03:07;;;;;;;11.98;9.18;;;14.60;99.90;;;;;;4892203;29;20172;-32
2023/07/23 03:05:37;;;;;;;12.43;10.13;;;14.60;99.90;;;;;;4876064;29;20052;-32
2023/07/23 03:08:03;;;;;;;14.90;10.52;;;14.60;99.90;;;;;;4900244;29;20120;-33
2023/07/23 03:10:29;;;;;;;13.95;10.27;;;14.60;99.90;;;;;;4876351;29;20048;-33
2023/07/23 03:12:55;;;;;;;12.43;10.57;;;14.50;99.90;;;;;;4895053;29;20052;-33
2023/07/23 03:15:22;;;;;;;13.15;10.65;;;14.50;99.90;;;;;;4899806;29;20032;-32
2023/07/23 03:17:47;;;;;;;14.30;10.10;;;14.50;99.90;;;;;;4876427;29;20052;-33
2023/07/23 03:20:14;;;;;;;13.63;9.85;;;14.50;99.90;;;;;;4892366;29;20037;-33
2023/07/23 03:22:40;;;;;;;15.20;9.68;;;14.50;99.90;;;;;;4894195;29;20085;-32
2023/07/23 03:25:06;;;;;;;14.05;10.73;;;14.50;99.90;;;;;;4896485;29;20072;-33
2023/07/23 03:27:32;;;;;;;14.18;10.57;;;14.50;99.90;;;;;;4875878;29;20051;-33
2023/07/23 03:29:58;;;;;;;14.02;10.13;;;14.50;99.90;;;;;;4891365;29;20033;-33
2023/07/23 03:32:23;;;;;;;14.02;10.68;;;14.50;99.90;;;;;;4897185;29;20043;-33
2023/07/23 03:34:49;;;;;;;14.15;10.18;;;14.50;99.90;;;;;;4892943;29;20159;-33
2023/07/23 03:37:15;;;;;;;12.30;9.80;;;14.50;99.90;;;;;;4887646;29;20047;-33
2023/07/23 03:39:40;;;;;;;12.27;9.70;;;14.50;99.90;;;;;;4895597;29;20055;-33
2023/07/23 03:42:06;;;;;;;14.20;10.73;;;14.60;99.90;;;;;;4892729;29;20398;-33
2023/07/23 03:44:33;;;;;;;14.30;9.40;;;14.60;99.90;;;;;;4895404;29;20040;-31
2023/07/23 03:47:08;;;;;;;11.25;10.02;;;14.60;99.90;;;;;;4897117;29;20038;-32
2023/07/23 03:49:34;;;;;;;12.77;10.38;;;14.50;99.90;;;;;;4903070;29;20068;-32
2023/07/23 03:52:00;;;;;;;14.43;10.82;;;14.60;99.90;;;;;;4896084;29;20399;-33
2023/07/23 03:54:26;;;;;;;12.57;9.75;;;14.60;99.90;;;;;;4903490;29;20057;-33
2023/07/23 03:56:53;;;;;;;12.23;9.50;;;14.50;99.90;;;;;;4900080;29;20036;-33
2023/07/23 03:59:19;;;;;;;12.02;9.57;;;14.60;99.90;;;;;;4902909;29;20112;-33
2023/07/23 04:01:45;;;;;;;10.93;9.45;;;14.60;99.90;;;;;;4894645;29;20499;-33
2023/07/23 04:04:10;;;;;;;12.07;9.05;;;14.50;99.90;;;;;;4896879;29;20399;-33
2023/07/23 04:06:36;;;;;;;12.40;9.27;;;14.60;99.90;;;;;;4905277;29;20498;-33
2023/07/23 04:09:02;;;;;;;15.32;10.35;;;14.50;99.90;;;;;;4896710;29;20482;-33
2023/07/23 04:11:28;;;;;;;12.40;9.85;;;14.60;99.90;;;;;;4896144;29;20041;-33
2023/07/23 04:13:53;;;;;;;16.30;11.05;;;14.60;99.90;;;;;;4896997;29;20059;-32
2023/07/23 04:16:19;;;;;;;12.80;9.75;;;14.60;99.90;;;;;;4899121;29;20036;-34
2023/07/23 04:18:50;;;;;;;10.77;8.98;;;14.60;99.90;;;;;;4886378;29;20107;-31
2023/07/23 04:21:21;;;;;;;13.05;9.52;;;14.60;99.90;;;;;;4896481;29;20040;-35
2023/07/23 04:23:51;;;;;;;15.70;11.13;;;14.60;99.90;;;;;;4896816;29;20051;-33
2023/07/23 04:26:18;;;;;;;13.35;11.27;;;14.60;99.90;;;;;;4894409;29;20123;-33
2023/07/23 04:28:45;;;;;;;14.65;11.45;;;14.70;99.90;;;;;;4873598;29;20119;-33
2023/07/23 04:31:11;;;;;;;14.38;11.32;;;14.70;99.90;;;;;;4888739;29;20302;-33
2023/07/23 04:33:37;;;;;;;14.23;11.35;;;14.70;99.90;;;;;;4881775;29;20044;-33
2023/07/23 04:36:05;;;;;;;12.48;10.75;;;14.60;99.90;;;;;;4895030;29;20068;-33
2023/07/23 04:38:31;;;;;;;16.15;11.82;;;14.60;99.90;;;;;;4880957;29;20728;-33
2023/07/23 04:40:57;;;;;;;14.75;10.88;;;14.70;99.90;;;;;;4891713;29;20072;-33
2023/07/23 04:43:22;;;;;;;12.65;10.68;;;14.70;99.90;;;;;;4878774;29;20043;-33
2023/07/23 04:45:48;;;;;;;13.25;11.77;;;14.70;99.90;;;;;;4894763;29;20043;-33
2023/07/23 04:48:16;;;;;;;13.98;12.48;;;14.70;99.90;;;;;;4873330;29;20105;-33
2023/07/23 04:50:42;;;;;;;15.15;11.52;;;14.70;99.90;;;;;;4897123;29;20045;-33
2023/07/23 04:53:08;;;;;;;14.60;11.32;;;14.70;99.90;;;;;;4898275;29;20039;-33
2023/07/23 04:55:34;;;;;;;16.55;12.30;;;14.80;99.90;;;;;;4895126;29;20032;-33
2023/07/23 04:58:00;;;;;;;14.32;11.90;;;14.80;99.90;;;;;;4875520;29;20052;-33
2023/07/23 05:00:27;;;;;;;14.68;10.82;;;14.80;99.90;;;;;;4887577;29;20049;-33
2023/07/23 05:02:53;;;;;;;12.60;10.85;;;14.80;99.90;;;;;;4892240;29;20040;-33
2023/07/23 05:05:18;;;;;;;13.65;11.40;;;14.80;99.90;;;;;;4888448;29;20044;-33
2023/07/23 05:07:44;;;;;;;12.52;9.35;;;14.80;99.90;;;;;;4896750;29;20060;-33
2023/07/23 05:10:10;;;;;;;14.50;11.40;;;14.90;99.90;;;;;;4879375;29;20067;-33
2023/07/23 05:12:36;;;;;;;14.85;11.45;;;14.90;99.90;;;;;;4892773;29;20037;-33
2023/07/23 05:15:12;;;;;;;13.18;10.65;;;14.90;99.90;;;;;;4878670;29;20092;-35
2023/07/23 05:17:39;;;;;;;14.50;10.82;;;14.90;99.90;;;;;;4890494;29;20418;-35
2023/07/23 05:20:06;;;;;;;14.80;10.70;;;14.90;99.90;;;;;;4892546;29;20051;-36
2023/07/23 05:22:33;;;;;;;12.90;10.63;;;14.90;99.90;;;;;;4890585;29;20040;-35
2023/07/23 05:24:58;;;;;;;14.80;11.57;;;15.00;99.90;;;;;;4894326;29;21163;-36
2023/07/23 05:27:26;;;;;;;13.90;11.48;;;15.00;99.90;;;;;;4878320;29;20111;-35
2023/07/23 05:29:53;;;;;;;13.02;11.25;;;15.00;99.90;;;;;;4887220;29;20097;-35
2023/07/23 05:32:19;;;;;;;15.18;10.57;;;15.10;99.90;;;;;;4880527;29;20037;-36
2023/07/23 05:34:44;;;;;;;13.23;11.57;;;15.10;99.90;;;;;;4886059;29;20534;-35
2023/07/23 05:37:10;;;;;;;13.50;10.38;;;15.10;99.90;;;;;;4881784;29;20113;-35
2023/07/23 05:39:36;;;;;;;16.23;11.00;;;15.20;99.90;;;;;;4881601;29;20124;-34
2023/07/23 05:42:01;;;;;;;14.23;10.63;;;15.20;99.90;;;;;;4876522;29;20498;-35
2023/07/23 05:44:28;;;;;;;14.18;10.68;;;15.20;99.90;;;;;;4881155;29;20045;-35
2023/07/23 05:46:53;;;;;;;11.95;9.82;;;15.20;99.90;;;;;;4886487;29;20044;-35
2023/07/23 05:49:19;;;;;;;13.60;11.43;;;15.30;99.90;;;;;;4884988;29;20059;-37
2023/07/23 05:51:45;;;;;;;13.52;10.30;;;15.30;99.90;;;;;;4884061;29;20041;-35
2023/07/23 05:54:10;;;;;;;15.43;11.07;;;15.30;99.90;;;;;;4881700;29;20060;-36
2023/07/23 05:56:37;;;;;;;13.48;10.57;;;15.40;99.90;;;;;;4884794;29;20119;-37
2023/07/23 05:59:02;;;;;;;13.52;11.48;;;15.50;99.90;;;;;;4899131;29;20093;-35
2023/07/23 06:01:28;;;;;;;13.02;10.52;;;15.60;99.90;;;;;;4885421;29;20379;-35
2023/07/23 06:03:54;;;;;;;15.27;10.68;;;15.70;99.90;;;;;;4879242;29;20491;-36
2023/07/23 06:06:19;;;;;;;13.07;10.63;;;15.70;99.90;;;;;;4880701;29;20148;-34
2023/07/23 06:08:45;;;;;;;12.70;9.88;;;15.80;99.90;;;;;;4877004;29;20053;-33
2023/07/23 06:11:11;;;;;;;12.32;9.60;;;15.80;99.90;;;;;;4895425;29;20033;-33
2023/07/23 06:13:36;;;;;;;10.68;9.57;;;15.80;99.90;;;;;;4900249;29;20035;-33
2023/07/23 06:16:02;;;;;;;12.32;8.93;;;15.90;99.90;;;;;;4892142;29;20036;-33
2023/07/23 06:18:28;;;;;;;13.50;9.32;;;15.90;99.90;;;;;;4901800;29;20050;-33
2023/07/23 06:20:54;;;;;;;11.73;9.85;;;16.00;99.90;;;;;;4890856;29;20127;-32
2023/07/23 06:23:20;;;;;;;12.77;8.98;;;16.00;99.90;;;;;;4897264;29;20123;-33
2023/07/23 06:25:45;;;;;;;11.23;9.20;;;16.10;99.90;;;;;;4894090;29;20152;-33
2023/07/23 06:28:11;;;;;;;11.85;9.30;;;16.10;99.90;;;;;;4895721;29;20037;-33
2023/07/23 06:30:37;;;;;;;13.38;8.65;;;16.20;99.90;;;;;;4894786;29;20044;-33
2023/07/23 06:33:02;;;;;;;12.68;9.35;;;16.30;99.90;;;;;;4894485;29;20045;-32
2023/07/23 06:35:28;;;;;;;12.90;8.88;;;16.30;99.90;;;;;;4894248;29;20036;-32
2023/07/23 06:37:54;;;;;;;10.27;8.25;;;16.40;99.90;;;;;;4894292;29;20092;-32
2023/07/23 06:40:19;;;;;;;9.70;8.65;;;16.40;99.90;;;;;;4901386;29;20044;-32
2023/07/23 06:42:45;;;;;;;13.30;8.93;;;16.40;99.90;;;;;;4899685;29;20051;-32
2023/07/23 06:45:11;;;;;;;12.13;9.68;;;16.50;99.90;;;;;;4893852;29;20083;-32
2023/07/23 06:47:39;;;;;;;14.00;9.60;;;16.50;99.90;;;;;;4893933;29;20096;-32
2023/07/23 06:50:06;;;;;;;11.93;8.68;;;16.60;99.90;;;;;;4893717;29;20056;-32
2023/07/23 06:52:31;;;;;;;12.85;9.38;;;16.60;99.90;;;;;;4893691;29;20032;-32
2023/07/23 06:54:57;;;;;;;11.68;9.70;;;16.70;99.90;;;;;;4898789;29;20123;-39
2023/07/23 06:57:24;;;;;;;12.98;9.18;;;16.70;99.90;;;;;;4901355;29;20464;-32
2023/07/23 06:59:50;;;;;;;12.75;10.18;;;16.70;99.90;;;;;;4896996;29;20032;-32
2023/07/23 07:02:16;;;;;;;12.75;9.48;;;16.70;99.90;;;;;;4895575;29;20047;-32
2023/07/23 07:04:41;;;;;;;12.15;9.52;;;16.70;99.90;;;;;;4908907;29;20040;-32
2023/07/23 07:07:07;;;;;;;11.40;9.20;;;16.70;99.90;;;;;;4893499;29;20387;-32
2023/07/23 07:09:33;;;;;;;12.68;9.75;;;16.80;99.90;;;;;;4891712;29;20033;-32
2023/07/23 07:11:58;;;;;;;13.52;9.32;;;16.80;99.90;;;;;;4890387;29;20185;-32
2023/07/23 07:14:24;;;;;;;12.90;9.32;;;16.80;99.90;;;;;;4910619;29;20506;-32
2023/07/23 07:16:50;;;;;;;11.40;8.45;;;16.80;99.90;;;;;;4897583;29;20040;-32
2023/07/23 07:19:16;;;;;;;12.43;9.32;;;16.90;99.90;;;;;;4896808;29;20511;-32
2023/07/23 07:21:42;;;;;;;12.00;9.50;;;16.90;99.90;;;;;;4888596;29;20048;-32
2023/07/23 07:24:08;;;;;;;11.48;8.35;;;16.90;99.90;;;;;;4911865;29;20123;-32
2023/07/23 07:26:34;;;;;;;15.27;10.00;;;16.80;99.90;;;;;;4883592;29;20043;-33
2023/07/23 07:29:00;;;;;;;12.35;9.52;;;16.80;99.90;;;;;;4906772;29;20044;-32
2023/07/23 07:31:25;;;;;;;15.68;9.57;;;16.80;99.90;;;;;;4897389;29;20483;-32
2023/07/23 07:33:51;;;;;;;11.85;9.00;;;16.80;99.90;;;;;;4880379;29;20491;-32
2023/07/23 07:36:17;;;;;;;14.57;8.88;;;16.80;99.90;;;;;;4902743;29;20545;-32
2023/07/23 07:38:43;;;;;;;11.32;9.75;;;16.70;99.90;;;;;;4904463;29;20048;-32
2023/07/23 07:41:09;;;;;;;11.23;8.55;;;16.70;99.90;;;;;;4880115;29;20057;-33
2023/07/23 07:43:35;;;;;;;15.35;9.80;;;16.70;99.90;;;;;;4897548;29;20044;-32
2023/07/23 07:46:03;;;;;;;14.52;9.73;;;16.70;99.90;;;;;;4898099;29;20045;-32
2023/07/23 07:48:30;;;;;;;14.30;9.55;;;16.60;99.90;;;;;;4915467;29;20079;-32
2023/07/23 07:51:04;;;;;;;10.60;8.88;;;16.60;99.90;;;;;;4902525;29;20040;-31
2023/07/23 07:53:31;;;;;;;12.00;9.57;;;16.50;99.90;;;;;;4892123;29;20044;-32
2023/07/23 07:55:57;;;;;;;14.32;9.82;;;16.50;99.90;;;;;;4896781;29;20049;-31
2023/07/23 07:58:27;;;;;;;13.30;9.90;;;16.50;99.90;;;;;;4879528;29;20044;-31
2023/07/23 08:00:57;;;;;;;14.23;9.43;;;16.50;99.90;;;;;;4896481;29;20418;-31
2023/07/23 08:03:24;;;;;;;12.98;9.95;;;16.50;99.90;;;;;;4896791;29;20180;-31
2023/07/23 08:05:51;;;;;;;13.50;8.50;;;16.40;99.90;;;;;;4896794;29;20068;-31
2023/07/23 08:08:19;;;;;;;10.70;8.88;;;16.30;99.90;;;;;;4879714;29;20144;-32
2023/07/23 08:10:46;;;;;;;15.02;9.27;;;16.30;99.90;;;;;;4894258;29;20057;-31
2023/07/23 08:13:13;;;;;;;12.95;8.75;;;16.20;99.90;;;;;;4905275;29;20039;-31
2023/07/23 08:15:39;;;;;;;11.38;9.15;;;16.20;99.90;;;;;;4906289;29;20092;-31
2023/07/23 08:18:05;;;;;;;10.48;8.40;;;16.10;99.90;;;;;;4879014;29;20052;-31
2023/07/23 08:20:34;;;;;;;12.50;8.85;;;16.10;99.90;;;;;;4895072;29;20388;-31
2023/07/23 08:23:01;;;;;;;9.75;8.38;;;16.10;99.90;;;;;;4896344;29;20049;-31
2023/07/23 08:25:29;;;;;;;11.52;8.23;;;16.20;99.90;;;;;;4898577;29;20044;-31
2023/07/23 08:28:01;;;;;;;9.60;7.65;;;16.10;99.90;;;;;;4908785;29;20100;-31
2023/07/23 08:30:30;;;;;;;11.02;7.93;;;16.10;99.90;;;;;;4902891;29;20126;-33
2023/07/23 08:32:58;;;;;;;11.15;8.57;;;16.20;99.90;;;;;;4900911;29;20131;-33
2023/07/23 08:35:26;;;;;;;10.30;7.85;;;16.20;99.90;;;;;;4872243;29;20033;-33
2023/07/23 08:37:55;;;;;;;11.50;8.07;;;16.30;99.90;;;;;;4887511;29;20036;-33
2023/07/23 08:40:23;;;;;;;10.85;7.63;;;16.40;99.90;;;;;;4890867;29;20048;-33
2023/07/23 08:42:54;;;;;;;10.68;7.78;;;16.40;99.90;;;;;;4893844;29;20043;-33
2023/07/23 08:45:41;;;;;;;9.88;7.70;;;16.40;99.90;;;;;;4892503;29;20044;-34
2023/07/23 08:48:18;;;;;;;8.15;7.13;;;16.40;99.90;;;;;;4885149;29;20482;-33
2023/07/23 08:50:51;;;;;;;9.02;7.20;;;16.40;99.90;;;;;;4887190;29;20045;-34
2023/07/23 08:53:18;;;;;;;9.02;7.63;;;16.30;99.90;;;;;;4892437;29;20092;-33
2023/07/23 08:55:47;;;;;;;9.63;7.30;;;16.30;99.90;;;;;;4890368;29;20313;-34
2023/07/23 08:58:15;;;;;;;10.98;8.05;;;16.30;99.90;;;;;;4893776;29;20074;-33
2023/07/23 09:00:46;;;;;;;11.23;8.35;;;16.30;99.90;;;;;;4870132;29;20044;-34
2023/07/23 09:03:14;;;;;;;10.90;7.97;;;16.30;99.90;;;;;;4895926;29;20248;-34
2023/07/23 09:05:40;;;;;;;10.63;7.85;;;16.20;99.90;;;;;;4896317;29;20314;-34
2023/07/23 09:08:07;;;;;;;10.65;7.32;;;16.20;99.90;;;;;;4893273;29;20044;-33
2023/07/23 09:10:33;;;;;;;10.77;8.35;;;16.20;99.90;;;;;;4876074;29;20048;-33
2023/07/23 09:12:59;;;;;;;8.38;7.40;;;16.20;99.90;;;;;;4891524;29;20032;-34
2023/07/23 09:15:24;;;;;;;11.40;8.60;;;16.20;99.90;;;;;;4879992;29;20040;-34
2023/07/23 09:17:51;;;;;;;9.70;8.05;;;16.20;99.90;;;;;;4858314;29;1115033;-34
2023/07/23 09:20:18;;;;;;;10.75;8.23;;;16.10;99.90;;;;;;4890518;29;20595;-34
2023/07/23 09:22:44;;;;;;;9.90;7.72;;;16.20;99.90;;;;;;4894102;29;20078;-32
2023/07/23 09:25:10;;;;;;;9.30;7.03;;;16.20;99.90;;;;;;4895563;29;20108;-32
2023/07/23 09:27:42;;;;;;;11.27;7.82;;;16.30;99.90;;;;;;4905745;29;20044;-33
2023/07/23 09:30:18;;;;;;;8.73;7.82;;;16.40;99.90;;;;;;4889887;29;20041;-33
2023/07/23 09:32:44;;;;;;;10.60;7.47;;;16.40;99.90;;;;;;4892470;29;20177;-33
2023/07/23 09:35:10;;;;;;;8.77;6.57;;;16.50;99.90;;;;;;4893357;29;20037;-33
2023/07/23 09:37:36;;;;;;;8.88;6.70;;;16.40;99.90;;;;;;4893870;29;20041;-33
2023/07/23 09:40:02;;;;;;;9.00;6.90;;;16.50;99.90;;;;;;4887513;29;20080;-34
2023/07/23 09:42:28;;;;;;;8.65;6.45;;;16.40;99.90;;;;;;4893567;29;20044;-34
2023/07/23 09:44:59;;;;;;;8.32;6.10;;;16.50;99.90;;;;;;4892692;29;20040;-33
2023/07/23 09:47:27;;;;;;;8.07;6.30;;;16.50;99.90;;;;;;4893390;29;20074;-34
2023/07/23 09:49:53;;;;;;;7.38;6.13;;;16.60;99.90;;;;;;4893142;29;20101;-33
2023/07/23 09:52:23;;;;;;;6.88;6.18;;;16.60;99.90;;;;;;4881414;29;20048;-34
2023/07/23 09:54:51;;;;;;;7.55;6.40;;;16.60;99.90;;;;;;4899683;29;20051;-33
2023/07/23 09:57:19;;;;;;;7.03;5.90;;;16.60;99.90;;;;;;4897650;29;20495;-33
2023/07/23 09:59:46;;;;;;;7.20;5.60;;;16.60;99.90;;;;;;4876627;29;20649;-33
2023/07/23 10:02:15;;;;;;;6.30;5.70;;;16.60;99.90;;;;;;4879427;29;20041;-33
2023/07/23 10:04:41;;;;;;;7.50;5.82;;;16.60;99.90;;;;;;4889883;29;20052;-34
2023/07/23 10:07:07;;;;;;;6.53;5.15;;;16.60;99.90;;;;;;4899001;29;20032;-33
2023/07/23 10:09:33;;;;;;;5.65;5.10;;;16.60;99.90;;;;;;4891800;29;20044;-34
2023/07/23 10:11:59;;;;;;;5.75;4.93;;;16.60;99.90;;;;;;4894039;29;20036;-33
2023/07/23 10:14:24;;;;;;;5.25;4.60;;;16.70;99.90;;;;;;4894992;29;20511;-33
2023/07/23 10:16:52;;;;;;;5.70;5.07;;;16.70;99.90;;;;;;4877011;29;20044;-32
2023/07/23 10:19:20;;;;;;;5.47;4.97;;;16.70;99.90;;;;;;4900795;29;20132;-31
2023/07/23 10:21:51;;;;;;;5.22;4.72;;;16.70;99.90;;;;;;4896037;29;20246;-33
2023/07/23 10:24:17;;;;;;;6.82;5.22;;;16.70;99.90;;;;;;4883133;29;20041;-33
2023/07/23 10:26:47;;;;;;;5.30;4.80;;;16.80;99.90;;;;;;4879294;29;20032;-33
2023/07/23 10:29:23;;;;;;;7.03;5.55;;;16.80;99.90;;;;;;4881653;29;20041;-33
2023/07/23 10:31:49;;;;;;;5.88;5.35;;;16.90;99.90;;;;;;4894389;29;20636;-33
2023/07/23 10:34:26;;;;;;;6.25;5.65;;;16.90;99.90;;;;;;4898082;29;20048;-33
2023/07/23 10:37:18;;;;;;;6.03;5.25;;;16.90;99.90;;;;;;4878405;29;20491;-33
2023/07/23 10:39:47;;;;;;;6.80;5.22;;;16.80;99.90;;;;;;4897039;29;20041;-33
2023/07/23 10:42:28;;;;;;;6.20;5.60;;;16.90;99.90;;;;;;4894297;29;20037;-33
2023/07/23 10:45:13;;;;;;;6.63;5.65;;;16.90;99.90;;;;;;4899233;29;20040;-33
2023/07/23 10:47:39;;;;;;;7.32;5.60;;;16.90;99.90;;;;;;4901064;29;20103;-32
2023/07/23 10:50:12;;;;;;;5.88;4.85;;;16.90;99.90;;;;;;4897600;29;20049;-33
2023/07/23 10:52:38;;;;;;;6.45;5.70;;;16.90;99.90;;;;;;4894836;29;20123;-33
2023/07/23 10:55:07;;;;;;;7.10;5.80;;;16.90;99.90;;;;;;4890572;29;20172;-33
2023/07/23 10:57:38;;;;;;;8.80;5.75;;;16.90;99.90;;;;;;4900714;29;20093;-33
2023/07/23 11:00:17;;;;;;;6.78;5.72;;;17.00;99.90;;;;;;4897278;29;20107;-33
2023/07/23 11:02:47;;;;;;;6.68;5.43;;;16.90;99.90;;;;;;4908079;29;20216;-32
2023/07/23 11:05:14;;;;;;;7.78;6.20;;;16.90;99.90;;;;;;4906968;29;20119;-33
2023/07/23 11:07:40;;;;;;;7.57;6.05;;;16.90;99.90;;;;;;4883269;29;20586;-33
2023/07/23 11:10:43;;;;;;;6.85;6.18;;;16.90;99.90;;;;;;4896712;29;20076;-33
2023/07/23 11:13:09;;;;;;;7.65;6.03;;;16.90;99.90;;;;;;4905258;29;20057;-33
2023/07/23 11:15:36;;;;;;;7.53;6.30;;;16.90;99.90;;;;;;4897168;29;20048;-33
2023/07/23 11:18:02;;;;;;;7.43;5.93;;;16.90;99.90;;;;;;4902874;29;20032;-33
2023/07/23 11:20:27;;;;;;;7.13;6.43;;;16.90;99.90;;;;;;4884292;29;20426;-32
2023/07/23 11:22:57;;;;;;;6.93;5.70;;;17.00;99.90;;;;;;4899948;29;20562;-33
2023/07/23 11:25:23;;;;;;;8.18;6.30;;;17.00;99.90;;;;;;4900301;29;20048;-32
2023/07/23 11:27:51;;;;;;;7.00;6.20;;;17.00;99.90;;;;;;4898815;29;20527;-33
2023/07/23 11:30:17;;;;;;;7.47;6.28;;;17.00;99.90;;;;;;4890215;29;20036;-33
2023/07/23 11:32:47;;;;;;;7.10;6.35;;;17.00;99.90;;;;;;4898207;29;20088;-33
2023/07/23 11:35:15;;;;;;;7.70;6.18;;;17.10;99.90;;;;;;4897876;29;20076;-33
2023/07/23 11:37:50;;;;;;;7.13;6.38;;;17.10;99.90;;;;;;4895090;29;20053;-33
2023/07/23 11:40:23;;;;;;;7.38;6.13;;;17.10;99.90;;;;;;4898728;29;20104;-33
2023/07/23 11:42:52;;;;;;;8.25;6.28;;;17.10;99.90;;;;;;4901560;29;20255;-33
2023/07/23 11:45:18;;;;;;;7.25;6.00;;;17.10;99.90;;;;;;4880860;29;20036;-33
2023/07/23 11:47:52;;;;;;;6.30;5.65;;;17.10;99.90;;;;;;4896643;29;20068;-33
2023/07/23 11:50:18;;;;;;;8.40;5.97;;;17.10;99.90;;;;;;4884499;29;20032;-33
2023/07/23 11:52:47;;;;;;;6.63;5.80;;;17.10;99.90;;;;;;4894375;29;20044;-32
2023/07/23 11:55:25;;;;;;;6.05;5.40;;;17.10;99.90;;;;;;4890970;29;20044;-35
2023/07/23 11:57:55;;;;;;;7.47;5.57;;;17.10;99.90;;;;;;4884492;29;20047;-37
2023/07/23 12:00:31;;;;;;;6.20;5.60;;;17.10;99.90;;;;;;4866681;29;20051;-36
2023/07/23 12:02:58;;;;;;;6.88;5.53;;;17.20;99.90;;;;;;4883121;29;20070;-38
2023/07/23 12:05:24;;;;;;;6.28;5.25;;;17.30;99.90;;;;;;4888724;29;20048;-35
2023/07/23 12:07:53;;;;;;;6.57;5.53;;;17.40;99.90;;;;;;4884684;29;20054;-35
2023/07/23 12:10:20;;;;;;;5.75;5.15;;;17.30;99.90;;;;;;4886369;29;20172;-36
2023/07/23 12:12:46;;;;;;;5.22;4.10;;;17.40;99.90;;;;;;4884258;29;20047;-35
2023/07/23 12:15:14;;;;;;;6.53;4.53;;;17.40;99.90;;;;;;4887571;29;20044;-35
2023/07/23 12:17:40;;;;;;;7.22;4.25;;;17.40;99.90;;;;;;4890623;29;20047;-36
2023/07/23 12:20:09;;;;;;;4.07;3.67;;;17.40;99.90;;;;;;4869283;29;20037;-35
2023/07/23 12:22:50;;;;;;;4.20;3.80;;;17.40;99.90;;;;;;4887698;29;20166;-38
2023/07/23 12:25:16;;;;;;;4.15;3.75;;;17.40;99.90;;;;;;4883989;29;20068;-35
2023/07/23 12:27:42;;;;;;;3.80;3.20;;;17.40;99.90;;;;;;4880914;29;20063;-35
2023/07/23 12:30:08;;;;;;;3.70;3.40;;;17.50;99.90;;;;;;4889311;29;20167;-36
2023/07/23 12:32:36;;;;;;;3.92;3.55;;;17.50;99.90;;;;;;4883399;29;20051;-37
2023/07/23 12:35:02;;;;;;;3.80;3.05;;;17.60;99.90;;;;;;4893304;29;20086;-36
2023/07/23 12:37:28;;;;;;;3.47;2.80;;;17.60;99.90;;;;;;4873118;29;20041;-36